sensor_id;sensor_type;location;lat;lon;timestamp;temperature;humidity
23137;DHT22;11737;50.558;7.258;2023-04-24T00:02:03;13.60;99.90
23137;DHT22;11737;50.558;7.258;2023-04-24T00:04:30;13.50;99.90
23137;DHT22;11737;50.558;7.258;2023-04-24T00:06:58;13.50;99.90
23137;DHT22;11737;50.558;7.258;2023-04-24T00:09:26;13.50;99.90
23137;DHT22;11737;50.558;7.258;2023-04-24T00:11:54;13.50;99.90
23137;DHT22;11737;50.558;7.258;2023-04-24T00:14:22;13.50;99.90
23137;DHT22;11737;50.558;7.258;2023-04-24T00:16:50;13.50;99.90
23137;DHT22;11737;50.558;7.258;2023-04-24T00:19:18;13.40;99.90
23137;DHT22;11737;50.558;7.258;2023-04-24T00:21:47;13.50;99.90
23137;DHT22;11737;50.558;7.258;2023-04-24T00:24:17;13.50;99.90
23137;DHT22;11737;50.558;7.258;2023-04-24T00:26:45;13.40;99.90
23137;DHT22;11737;50.558;7.258;2023-04-24T00:29:12;13.40;99.90
23137;DHT22;11737;50.558;7.258;2023-04-24T00:31:40;13.40;99.90
23137;DHT22;11737;50.558;7.258;2023-04-24T00:34:07;13.40;99.90
23137;DHT22;11737;50.558;7.258;2023-04-24T00:36:35;13.40;99.90
23137;DHT22;11737;50.558;7.258;2023-04-24T00:39:02;13.40;99.90
23137;DHT22;11737;50.558;7.258;2023-04-24T00:41:30;13.40;99.90
23137;DHT22;11737;50.558;7.258;2023-04-24T00:43:58;13.30;99.90
23137;DHT22;11737;50.558;7.258;2023-04-24T00:46:25;13.30;99.90
23137;DHT22;11737;50.558;7.258;2023-04-24T00:48:53;13.30;99.90
23137;DHT22;11737;50.558;7.258;2023-04-24T00:51:20;13.30;99.90
23137;DHT22;11737;50.558;7.258;2023-04-24T00:53:48;13.30;99.90
23137;DHT22;11737;50.558;7.258;2023-04-24T00:56:16;13.30;99.90
23137;DHT22;11737;50.558;7.258;2023-04-24T00:58:44;13.20;99.90
23137;DHT22;11737;50.558;7.258;2023-04-24T01:01:12;13.20;99.90
23137;DHT22;11737;50.558;7.258;2023-04-24T01:03:40;13.20;99.90
23137;DHT22;11737;50.558;7.258;2023-04-24T01:06:09;13.10;99.90
23137;DHT22;11737;50.558;7.258;2023-04-24T01:08:38;13.10;99.90
23137;DHT22;11737;50.558;7.258;2023-04-24T01:11:07;13.10;99.90
23137;DHT22;11737;50.558;7.258;2023-04-24T01:13:35;13.10;99.90
23137;DHT22;11737;50.558;7.258;2023-04-24T01:16:02;13.10;99.90
23137;DHT22;11737;50.558;7.258;2023-04-24T01:18:31;13.00;99.90
23137;DHT22;11737;50.558;7.258;2023-04-24T01:21:00;13.00;99.90
23137;DHT22;11737;50.558;7.258;2023-04-24T01:23:28;13.00;99.90
23137;DHT22;11737;50.558;7.258;2023-04-24T01:25:56;13.00;99.90
23137;DHT22;11737;50.558;7.258;2023-04-24T01:28:24;13.10;99.90
23137;DHT22;11737;50.558;7.258;2023-04-24T01:30:51;13.10;99.90
23137;DHT22;11737;50.558;7.258;2023-04-24T01:33:21;13.20;99.90
23137;DHT22;11737;50.558;7.258;2023-04-24T01:35:49;13.30;99.90
23137;DHT22;11737;50.558;7.258;2023-04-24T01:38:16;13.30;99.90
23137;DHT22;11737;50.558;7.258;2023-04-24T01:40:44;13.30;99.90
23137;DHT22;11737;50.558;7.258;2023-04-24T01:43:12;13.30;99.90
23137;DHT22;11737;50.558;7.258;2023-04-24T01:45:40;13.40;99.90
23137;DHT22;11737;50.558;7.258;2023-04-24T01:48:07;13.40;99.90
23137;DHT22;11737;50.558;7.258;2023-04-24T01:50:35;13.40;99.90
23137;DHT22;11737;50.558;7.258;2023-04-24T01:53:02;13.50;99.90
23137;DHT22;11737;50.558;7.258;2023-04-24T01:55:30;13.60;99.90
23137;DHT22;11737;50.558;7.258;2023-04-24T01:57:59;13.70;99.90
23137;DHT22;11737;50.558;7.258;2023-04-24T02:00:27;13.70;99.90
23137;DHT22;11737;50.558;7.258;2023-04-24T02:02:54;13.70;99.90
23137;DHT22;11737;50.558;7.258;2023-04-24T02:05:22;13.70;99.90
23137;DHT22;11737;50.558;7.258;2023-04-24T02:07:49;13.60;99.90
23137;DHT22;11737;50.558;7.258;2023-04-24T02:10:17;13.60;99.90
23137;DHT22;11737;50.558;7.258;2023-04-24T02:12:44;13.70;99.90
23137;DHT22;11737;50.558;7.258;2023-04-24T02:15:12;13.60;99.90
23137;DHT22;11737;50.558;7.258;2023-04-24T02:17:39;13.60;99.90
23137;DHT22;11737;50.558;7.258;2023-04-24T02:20:07;13.50;99.90
23137;DHT22;11737;50.558;7.258;2023-04-24T02:22:35;13.50;99.90
23137;DHT22;11737;50.558;7.258;2023-04-24T02:25:03;13.30;99.90
23137;DHT22;11737;50.558;7.258;2023-04-24T02:27:30;13.20;99.90
23137;DHT22;11737;50.558;7.258;2023-04-24T02:29:58;13.20;99.90
23137;DHT22;11737;50.558;7.258;2023-04-24T02:32:25;13.10;99.90
23137;DHT22;11737;50.558;7.258;2023-04-24T02:34:53;13.10;99.90
23137;DHT22;11737;50.558;7.258;2023-04-24T02:37:20;13.10;99.90
23137;DHT22;11737;50.558;7.258;2023-04-24T02:39:48;13.10;99.90
23137;DHT22;11737;50.558;7.258;2023-04-24T02:42:15;12.90;99.90
23137;DHT22;11737;50.558;7.258;2023-04-24T02:44:42;12.80;99.90
23137;DHT22;11737;50.558;7.258;2023-04-24T02:47:10;12.70;99.90
23137;DHT22;11737;50.558;7.258;2023-04-24T02:49:37;12.60;99.90
23137;DHT22;11737;50.558;7.258;2023-04-24T02:52:05;12.50;99.90
23137;DHT22;11737;50.558;7.258;2023-04-24T02:54:32;12.40;99.90
23137;DHT22;11737;50.558;7.258;2023-04-24T02:57:00;12.40;99.90
23137;DHT22;11737;50.558;7.258;2023-04-24T02:59:27;12.30;99.90
23137;DHT22;11737;50.558;7.258;2023-04-24T03:01:55;12.20;99.90
23137;DHT22;11737;50.558;7.258;2023-04-24T03:04:23;12.10;99.90
23137;DHT22;11737;50.558;7.258;2023-04-24T03:06:50;11.90;99.90
23137;DHT22;11737;50.558;7.258;2023-04-24T03:09:19;11.90;99.90
23137;DHT22;11737;50.558;7.258;2023-04-24T03:11:46;11.80;99.90
23137;DHT22;11737;50.558;7.258;2023-04-24T03:14:15;11.90;99.90
23137;DHT22;11737;50.558;7.258;2023-04-24T03:16:43;11.80;99.90
23137;DHT22;11737;50.558;7.258;2023-04-24T03:19:11;11.70;99.90
23137;DHT22;11737;50.558;7.258;2023-04-24T03:21:39;11.60;99.90
23137;DHT22;11737;50.558;7.258;2023-04-24T03:24:10;11.60;99.90
23137;DHT22;11737;50.558;7.258;2023-04-24T03:26:37;11.50;99.90
23137;DHT22;11737;50.558;7.258;2023-04-24T03:29:05;11.50;99.90
23137;DHT22;11737;50.558;7.258;2023-04-24T03:31:32;11.40;99.90
23137;DHT22;11737;50.558;7.258;2023-04-24T03:34:00;11.40;99.90
23137;DHT22;11737;50.558;7.258;2023-04-24T03:36:27;11.40;99.90
23137;DHT22;11737;50.558;7.258;2023-04-24T03:38:55;11.30;99.90
23137;DHT22;11737;50.558;7.258;2023-04-24T03:41:22;11.30;99.90
23137;DHT22;11737;50.558;7.258;2023-04-24T03:43:50;11.30;99.90
23137;DHT22;11737;50.558;7.258;2023-04-24T03:46:17;11.20;99.90
23137;DHT22;11737;50.558;7.258;2023-04-24T03:48:45;11.10;99.90
23137;DHT22;11737;50.558;7.258;2023-04-24T03:51:12;11.00;99.90
23137;DHT22;11737;50.558;7.258;2023-04-24T03:53:40;10.80;99.90
23137;DHT22;11737;50.558;7.258;2023-04-24T03:56:07;10.80;99.90
23137;DHT22;11737;50.558;7.258;2023-04-24T03:58:35;10.80;99.90
23137;DHT22;11737;50.558;7.258;2023-04-24T04:01:02;10.80;99.90
23137;DHT22;11737;50.558;7.258;2023-04-24T04:03:30;10.80;99.90
23137;DHT22;11737;50.558;7.258;2023-04-24T04:05:57;10.70;99.90
23137;DHT22;11737;50.558;7.258;2023-04-24T04:08:25;10.70;99.90
23137;DHT22;11737;50.558;7.258;2023-04-24T04:10:52;10.70;99.90
23137;DHT22;11737;50.558;7.258;2023-04-24T04:13:20;10.70;99.90
23137;DHT22;11737;50.558;7.258;2023-04-24T04:15:47;10.60;99.90
23137;DHT22;11737;50.558;7.258;2023-04-24T04:18:15;10.60;99.90
23137;DHT22;11737;50.558;7.258;2023-04-24T04:20:42;10.60;99.90
23137;DHT22;11737;50.558;7.258;2023-04-24T04:23:10;10.70;99.90
23137;DHT22;11737;50.558;7.258;2023-04-24T04:25:37;10.70;99.90
23137;DHT22;11737;50.558;7.258;2023-04-24T04:28:05;10.80;99.90
23137;DHT22;11737;50.558;7.258;2023-04-24T04:30:32;10.80;99.90
23137;DHT22;11737;50.558;7.258;2023-04-24T04:33:00;10.70;99.90
23137;DHT22;11737;50.558;7.258;2023-04-24T04:35:27;10.70;99.90
23137;DHT22;11737;50.558;7.258;2023-04-24T04:37:55;10.70;99.90
23137;DHT22;11737;50.558;7.258;2023-04-24T04:40:24;10.70;99.90
23137;DHT22;11737;50.558;7.258;2023-04-24T04:42:52;10.60;99.90
23137;DHT22;11737;50.558;7.258;2023-04-24T04:45:20;10.60;99.90
23137;DHT22;11737;50.558;7.258;2023-04-24T04:47:48;10.60;99.90
23137;DHT22;11737;50.558;7.258;2023-04-24T04:50:15;10.80;99.90
23137;DHT22;11737;50.558;7.258;2023-04-24T04:52:44;10.90;99.90
23137;DHT22;11737;50.558;7.258;2023-04-24T04:55:12;11.00;99.90
23137;DHT22;11737;50.558;7.258;2023-04-24T04:57:39;11.10;99.90
23137;DHT22;11737;50.558;7.258;2023-04-24T05:00:08;11.10;99.90
23137;DHT22;11737;50.558;7.258;2023-04-24T05:02:37;11.20;99.90
23137;DHT22;11737;50.558;7.258;2023-04-24T05:05:06;11.20;99.90
23137;DHT22;11737;50.558;7.258;2023-04-24T05:07:35;11.30;99.90
23137;DHT22;11737;50.558;7.258;2023-04-24T05:10:03;11.30;99.90
23137;DHT22;11737;50.558;7.258;2023-04-24T05:12:30;11.40;99.90
23137;DHT22;11737;50.558;7.258;2023-04-24T05:14:58;11.40;99.90
23137;DHT22;11737;50.558;7.258;2023-04-24T05:17:25;11.50;99.90
23137;DHT22;11737;50.558;7.258;2023-04-24T05:19:53;11.50;99.90
23137;DHT22;11737;50.558;7.258;2023-04-24T05:22:21;11.50;99.90
23137;DHT22;11737;50.558;7.258;2023-04-24T05:24:48;11.50;99.90
23137;DHT22;11737;50.558;7.258;2023-04-24T05:27:16;11.60;99.90
23137;DHT22;11737;50.558;7.258;2023-04-24T05:29:43;11.60;99.90
23137;DHT22;11737;50.558;7.258;2023-04-24T05:32:11;11.60;99.90
23137;DHT22;11737;50.558;7.258;2023-04-24T05:34:38;11.70;99.90
23137;DHT22;11737;50.558;7.258;2023-04-24T05:37:06;11.80;99.90
23137;DHT22;11737;50.558;7.258;2023-04-24T05:39:36;11.70;99.90
23137;DHT22;11737;50.558;7.258;2023-04-24T05:42:04;11.80;99.90
23137;DHT22;11737;50.558;7.258;2023-04-24T05:44:32;11.90;99.90
23137;DHT22;11737;50.558;7.258;2023-04-24T05:46:59;12.00;99.90
23137;DHT22;11737;50.558;7.258;2023-04-24T05:49:27;12.00;99.90
23137;DHT22;11737;50.558;7.258;2023-04-24T05:51:54;12.10;99.90
23137;DHT22;11737;50.558;7.258;2023-04-24T05:54:22;12.10;99.90
23137;DHT22;11737;50.558;7.258;2023-04-24T05:56:50;12.20;99.90
23137;DHT22;11737;50.558;7.258;2023-04-24T05:59:17;12.40;99.90
23137;DHT22;11737;50.558;7.258;2023-04-24T06:01:45;12.50;99.90
23137;DHT22;11737;50.558;7.258;2023-04-24T06:04:13;12.70;99.90
23137;DHT22;11737;50.558;7.258;2023-04-24T06:06:41;12.70;99.90
23137;DHT22;11737;50.558;7.258;2023-04-24T06:09:08;13.00;99.90
23137;DHT22;11737;50.558;7.258;2023-04-24T06:11:35;13.10;99.90
23137;DHT22;11737;50.558;7.258;2023-04-24T06:14:03;13.30;99.90
23137;DHT22;11737;50.558;7.258;2023-04-24T06:16:30;13.40;99.90
23137;DHT22;11737;50.558;7.258;2023-04-24T06:18:58;13.60;99.90
23137;DHT22;11737;50.558;7.258;2023-04-24T06:21:25;13.60;99.90
23137;DHT22;11737;50.558;7.258;2023-04-24T06:23:54;13.60;99.90
23137;DHT22;11737;50.558;7.258;2023-04-24T06:26:22;13.50;99.90
23137;DHT22;11737;50.558;7.258;2023-04-24T06:28:51;13.50;99.90
23137;DHT22;11737;50.558;7.258;2023-04-24T06:31:21;13.40;99.90
23137;DHT22;11737;50.558;7.258;2023-04-24T06:33:49;13.30;99.90
23137;DHT22;11737;50.558;7.258;2023-04-24T06:36:17;13.30;99.90
23137;DHT22;11737;50.558;7.258;2023-04-24T06:38:44;13.30;99.90
23137;DHT22;11737;50.558;7.258;2023-04-24T06:41:12;13.30;99.90
23137;DHT22;11737;50.558;7.258;2023-04-24T06:43:39;13.20;99.90
23137;DHT22;11737;50.558;7.258;2023-04-24T06:46:08;13.20;99.90
23137;DHT22;11737;50.558;7.258;2023-04-24T06:48:35;13.20;99.90
23137;DHT22;11737;50.558;7.258;2023-04-24T06:51:03;13.10;99.90
23137;DHT22;11737;50.558;7.258;2023-04-24T06:53:30;13.10;99.90
23137;DHT22;11737;50.558;7.258;2023-04-24T06:55:58;13.10;99.90
23137;DHT22;11737;50.558;7.258;2023-04-24T06:58:26;13.10;99.90
23137;DHT22;11737;50.558;7.258;2023-04-24T07:00:53;13.30;99.90
23137;DHT22;11737;50.558;7.258;2023-04-24T07:03:21;13.40;99.90
23137;DHT22;11737;50.558;7.258;2023-04-24T07:05:48;13.60;99.90
23137;DHT22;11737;50.558;7.258;2023-04-24T07:08:16;13.70;99.90
23137;DHT22;11737;50.558;7.258;2023-04-24T07:10:44;13.60;99.90
23137;DHT22;11737;50.558;7.258;2023-04-24T07:13:12;13.70;99.90
23137;DHT22;11737;50.558;7.258;2023-04-24T07:15:39;13.80;99.90
23137;DHT22;11737;50.558;7.258;2023-04-24T07:18:07;13.70;99.90
23137;DHT22;11737;50.558;7.258;2023-04-24T07:20:35;13.90;99.90
23137;DHT22;11737;50.558;7.258;2023-04-24T07:23:03;14.00;99.90
23137;DHT22;11737;50.558;7.258;2023-04-24T07:25:30;14.10;99.90
23137;DHT22;11737;50.558;7.258;2023-04-24T07:27:58;14.20;99.90
23137;DHT22;11737;50.558;7.258;2023-04-24T07:30:25;14.40;99.90
23137;DHT22;11737;50.558;7.258;2023-04-24T07:32:55;14.50;99.90
23137;DHT22;11737;50.558;7.258;2023-04-24T07:35:22;14.50;99.90
23137;DHT22;11737;50.558;7.258;2023-04-24T07:37:53;14.50;99.90
23137;DHT22;11737;50.558;7.258;2023-04-24T07:40:21;14.40;99.90
23137;DHT22;11737;50.558;7.258;2023-04-24T07:42:49;14.30;99.90
23137;DHT22;11737;50.558;7.258;2023-04-24T07:45:17;14.30;99.90
23137;DHT22;11737;50.558;7.258;2023-04-24T07:47:44;14.20;99.90
23137;DHT22;11737;50.558;7.258;2023-04-24T07:50:12;14.30;99.90
23137;DHT22;11737;50.558;7.258;2023-04-24T07:52:40;14.40;99.90
23137;DHT22;11737;50.558;7.258;2023-04-24T07:55:07;14.40;99.90
23137;DHT22;11737;50.558;7.258;2023-04-24T07:57:35;14.40;99.90
23137;DHT22;11737;50.558;7.258;2023-04-24T08:00:04;14.40;99.90
23137;DHT22;11737;50.558;7.258;2023-04-24T08:02:32;14.30;99.90
23137;DHT22;11737;50.558;7.258;2023-04-24T08:05:00;14.30;99.90
23137;DHT22;11737;50.558;7.258;2023-04-24T08:07:29;14.30;99.90
23137;DHT22;11737;50.558;7.258;2023-04-24T08:09:57;14.20;99.90
23137;DHT22;11737;50.558;7.258;2023-04-24T08:12:28;14.20;99.90
23137;DHT22;11737;50.558;7.258;2023-04-24T08:14:55;14.10;99.90
23137;DHT22;11737;50.558;7.258;2023-04-24T08:17:22;14.10;99.90
23137;DHT22;11737;50.558;7.258;2023-04-24T08:19:49;14.10;99.90
23137;DHT22;11737;50.558;7.258;2023-04-24T08:22:19;14.00;99.90
23137;DHT22;11737;50.558;7.258;2023-04-24T08:24:46;14.00;99.90
23137;DHT22;11737;50.558;7.258;2023-04-24T08:27:14;13.90;99.90
23137;DHT22;11737;50.558;7.258;2023-04-24T08:29:41;14.00;99.90
23137;DHT22;11737;50.558;7.258;2023-04-24T08:32:09;14.00;99.90
23137;DHT22;11737;50.558;7.258;2023-04-24T08:34:36;14.10;99.90
23137;DHT22;11737;50.558;7.258;2023-04-24T08:37:04;14.10;99.90
23137;DHT22;11737;50.558;7.258;2023-04-24T08:39:31;14.20;99.90
23137;DHT22;11737;50.558;7.258;2023-04-24T08:42:00;14.20;99.90
23137;DHT22;11737;50.558;7.258;2023-04-24T08:44:31;14.10;99.90
23137;DHT22;11737;50.558;7.258;2023-04-24T08:47:00;14.00;99.90
23137;DHT22;11737;50.558;7.258;2023-04-24T08:49:29;13.90;99.90
23137;DHT22;11737;50.558;7.258;2023-04-24T08:51:57;13.80;99.90
23137;DHT22;11737;50.558;7.258;2023-04-24T08:54:26;13.70;99.90
23137;DHT22;11737;50.558;7.258;2023-04-24T08:56:56;13.30;99.90
23137;DHT22;11737;50.558;7.258;2023-04-24T08:59:24;13.00;99.90
23137;DHT22;11737;50.558;7.258;2023-04-24T09:01:52;12.90;99.90
23137;DHT22;11737;50.558;7.258;2023-04-24T09:04:21;12.80;99.90
23137;DHT22;11737;50.558;7.258;2023-04-24T09:06:57;12.80;99.90
23137;DHT22;11737;50.558;7.258;2023-04-24T09:09:21;12.70;99.90
23137;DHT22;11737;50.558;7.258;2023-04-24T09:11:50;12.50;99.90
23137;DHT22;11737;50.558;7.258;2023-04-24T09:14:20;12.40;99.90
23137;DHT22;11737;50.558;7.258;2023-04-24T09:16:50;12.20;99.90
23137;DHT22;11737;50.558;7.258;2023-04-24T09:19:17;12.10;99.90
23137;DHT22;11737;50.558;7.258;2023-04-24T09:21:48;12.10;99.90
23137;DHT22;11737;50.558;7.258;2023-04-24T09:24:17;11.90;99.90
23137;DHT22;11737;50.558;7.258;2023-04-24T09:26:47;12.00;99.90
23137;DHT22;11737;50.558;7.258;2023-04-24T09:29:16;12.20;99.90
23137;DHT22;11737;50.558;7.258;2023-04-24T09:31:45;12.40;99.90
23137;DHT22;11737;50.558;7.258;2023-04-24T09:34:13;12.60;99.90
23137;DHT22;11737;50.558;7.258;2023-04-24T09:37:00;12.70;99.90
23137;DHT22;11737;50.558;7.258;2023-04-24T09:39:27;12.80;99.90
23137;DHT22;11737;50.558;7.258;2023-04-24T09:41:56;12.80;99.90
23137;DHT22;11737;50.558;7.258;2023-04-24T09:44:28;12.80;99.90
23137;DHT22;11737;50.558;7.258;2023-04-24T09:46:57;12.80;99.90
23137;DHT22;11737;50.558;7.258;2023-04-24T09:49:31;12.80;99.90
23137;DHT22;11737;50.558;7.258;2023-04-24T09:52:08;12.80;99.90
23137;DHT22;11737;50.558;7.258;2023-04-24T09:54:37;12.90;99.90
23137;DHT22;11737;50.558;7.258;2023-04-24T09:57:07;12.90;99.90
23137;DHT22;11737;50.558;7.258;2023-04-24T09:59:34;12.90;99.90
23137;DHT22;11737;50.558;7.258;2023-04-24T10:02:01;12.80;99.90
23137;DHT22;11737;50.558;7.258;2023-04-24T10:04:30;12.80;99.90
23137;DHT22;11737;50.558;7.258;2023-04-24T10:06:58;12.80;99.90
23137;DHT22;11737;50.558;7.258;2023-04-24T10:09:27;12.90;99.90
23137;DHT22;11737;50.558;7.258;2023-04-24T10:11:55;12.90;99.90
23137;DHT22;11737;50.558;7.258;2023-04-24T10:14:24;13.00;99.90
23137;DHT22;11737;50.558;7.258;2023-04-24T10:16:55;13.00;99.90
23137;DHT22;11737;50.558;7.258;2023-04-24T10:19:26;13.00;99.90
23137;DHT22;11737;50.558;7.258;2023-04-24T10:21:54;13.10;99.90
23137;DHT22;11737;50.558;7.258;2023-04-24T10:24:22;13.10;99.90
23137;DHT22;11737;50.558;7.258;2023-04-24T10:26:50;13.10;99.90
23137;DHT22;11737;50.558;7.258;2023-04-24T10:29:18;13.20;99.90
23137;DHT22;11737;50.558;7.258;2023-04-24T10:31:47;13.20;99.90
23137;DHT22;11737;50.558;7.258;2023-04-24T10:34:16;13.10;99.90
23137;DHT22;11737;50.558;7.258;2023-04-24T10:39:36;13.30;99.90
23137;DHT22;11737;50.558;7.258;2023-04-24T10:42:16;13.30;99.90
23137;DHT22;11737;50.558;7.258;2023-04-24T10:44:43;13.20;99.90
23137;DHT22;11737;50.558;7.258;2023-04-24T10:47:15;13.30;99.90
23137;DHT22;11737;50.558;7.258;2023-04-24T10:49:43;13.10;99.90
23137;DHT22;11737;50.558;7.258;2023-04-24T10:52:11;12.60;99.90
23137;DHT22;11737;50.558;7.258;2023-04-24T10:54:44;12.20;99.90
23137;DHT22;11737;50.558;7.258;2023-04-24T10:57:28;11.80;99.90
23137;DHT22;11737;50.558;7.258;2023-04-24T11:00:20;11.60;99.90
23137;DHT22;11737;50.558;7.258;2023-04-24T11:02:48;11.60;99.90
23137;DHT22;11737;50.558;7.258;2023-04-24T11:05:17;11.80;99.90
23137;DHT22;11737;50.558;7.258;2023-04-24T11:08:16;11.80;99.90
23137;DHT22;11737;50.558;7.258;2023-04-24T11:10:54;11.80;99.90
23137;DHT22;11737;50.558;7.258;2023-04-24T11:13:17;12.00;99.90
23137;DHT22;11737;50.558;7.258;2023-04-24T11:18:16;12.60;99.90
23137;DHT22;11737;50.558;7.258;2023-04-24T11:20:44;13.00;99.90
23137;DHT22;11737;50.558;7.258;2023-04-24T11:23:13;13.20;99.90
23137;DHT22;11737;50.558;7.258;2023-04-24T11:25:42;13.50;99.90
23137;DHT22;11737;50.558;7.258;2023-04-24T11:28:14;13.80;99.90
23137;DHT22;11737;50.558;7.258;2023-04-24T11:30:40;14.20;99.90
23137;DHT22;11737;50.558;7.258;2023-04-24T11:33:07;14.40;99.90
23137;DHT22;11737;50.558;7.258;2023-04-24T11:35:39;14.40;99.90
23137;DHT22;11737;50.558;7.258;2023-04-24T11:38:05;14.40;99.90
23137;DHT22;11737;50.558;7.258;2023-04-24T11:40:33;14.20;99.90
23137;DHT22;11737;50.558;7.258;2023-04-24T11:43:01;14.00;99.90
23137;DHT22;11737;50.558;7.258;2023-04-24T11:45:31;13.80;99.90
23137;DHT22;11737;50.558;7.258;2023-04-24T11:47:59;13.60;99.90
23137;DHT22;11737;50.558;7.258;2023-04-24T11:50:27;13.30;99.90
23137;DHT22;11737;50.558;7.258;2023-04-24T11:52:56;13.00;99.90
23137;DHT22;11737;50.558;7.258;2023-04-24T11:55:26;12.70;99.90
23137;DHT22;11737;50.558;7.258;2023-04-24T11:57:56;12.60;99.90
23137;DHT22;11737;50.558;7.258;2023-04-24T12:00:29;12.60;99.90
23137;DHT22;11737;50.558;7.258;2023-04-24T12:03:10;12.60;99.90
23137;DHT22;11737;50.558;7.258;2023-04-24T12:05:38;12.60;99.90
23137;DHT22;11737;50.558;7.258;2023-04-24T12:08:06;12.80;99.90
23137;DHT22;11737;50.558;7.258;2023-04-24T12:10:34;13.00;99.90
23137;DHT22;11737;50.558;7.258;2023-04-24T12:13:02;13.40;99.90
23137;DHT22;11737;50.558;7.258;2023-04-24T12:15:30;13.80;99.90
23137;DHT22;11737;50.558;7.258;2023-04-24T12:17:57;14.30;99.90
23137;DHT22;11737;50.558;7.258;2023-04-24T12:20:27;14.70;99.90
23137;DHT22;11737;50.558;7.258;2023-04-24T12:22:57;15.20;99.90
23137;DHT22;11737;50.558;7.258;2023-04-24T12:25:26;15.90;99.90
23137;DHT22;11737;50.558;7.258;2023-04-24T12:30:38;16.40;99.90
23137;DHT22;11737;50.558;7.258;2023-04-24T12:33:04;16.40;99.90
23137;DHT22;11737;50.558;7.258;2023-04-24T12:35:33;16.30;99.90
23137;DHT22;11737;50.558;7.258;2023-04-24T12:38:09;16.10;99.90
23137;DHT22;11737;50.558;7.258;2023-04-24T12:40:37;16.30;99.90
23137;DHT22;11737;50.558;7.258;2023-04-24T12:43:16;16.50;99.90
23137;DHT22;11737;50.558;7.258;2023-04-24T12:45:43;16.70;99.90
23137;DHT22;11737;50.558;7.258;2023-04-24T12:48:14;17.00;99.90
23137;DHT22;11737;50.558;7.258;2023-04-24T12:50:43;17.20;99.90
23137;DHT22;11737;50.558;7.258;2023-04-24T12:53:11;17.40;99.90
23137;DHT22;11737;50.558;7.258;2023-04-24T12:55:38;17.50;99.90
23137;DHT22;11737;50.558;7.258;2023-04-24T12:58:06;17.50;99.90
23137;DHT22;11737;50.558;7.258;2023-04-24T13:00:34;17.60;99.90
23137;DHT22;11737;50.558;7.258;2023-04-24T13:03:02;17.80;99.90
23137;DHT22;11737;50.558;7.258;2023-04-24T13:05:30;18.00;99.90
23137;DHT22;11737;50.558;7.258;2023-04-24T13:07:57;18.00;99.90
23137;DHT22;11737;50.558;7.258;2023-04-24T13:10:25;17.90;99.90
23137;DHT22;11737;50.558;7.258;2023-04-24T13:12:54;17.60;99.90
23137;DHT22;11737;50.558;7.258;2023-04-24T13:15:21;17.30;99.90
23137;DHT22;11737;50.558;7.258;2023-04-24T13:17:50;17.10;99.90
23137;DHT22;11737;50.558;7.258;2023-04-24T13:20:18;16.70;99.90
23137;DHT22;11737;50.558;7.258;2023-04-24T13:22:46;16.30;99.90
23137;DHT22;11737;50.558;7.258;2023-04-24T13:25:13;15.70;99.90
23137;DHT22;11737;50.558;7.258;2023-04-24T13:27:42;15.20;99.90
23137;DHT22;11737;50.558;7.258;2023-04-24T13:30:10;14.90;99.90
23137;DHT22;11737;50.558;7.258;2023-04-24T13:32:38;14.60;99.90
23137;DHT22;11737;50.558;7.258;2023-04-24T13:35:06;14.70;99.90
23137;DHT22;11737;50.558;7.258;2023-04-24T13:37:33;14.90;99.90
23137;DHT22;11737;50.558;7.258;2023-04-24T13:40:01;15.30;99.90
23137;DHT22;11737;50.558;7.258;2023-04-24T13:42:30;15.70;99.90
23137;DHT22;11737;50.558;7.258;2023-04-24T13:44:58;15.90;99.90
23137;DHT22;11737;50.558;7.258;2023-04-24T13:47:26;16.10;99.90
23137;DHT22;11737;50.558;7.258;2023-04-24T13:49:53;16.30;99.90
23137;DHT22;11737;50.558;7.258;2023-04-24T13:52:21;16.50;99.90
23137;DHT22;11737;50.558;7.258;2023-04-24T13:54:48;16.60;99.90
23137;DHT22;11737;50.558;7.258;2023-04-24T13:57:16;16.70;99.90
23137;DHT22;11737;50.558;7.258;2023-04-24T13:59:43;16.70;99.90
23137;DHT22;11737;50.558;7.258;2023-04-24T14:02:11;16.60;99.90
23137;DHT22;11737;50.558;7.258;2023-04-24T14:04:39;16.50;99.90
23137;DHT22;11737;50.558;7.258;2023-04-24T14:07:06;16.40;99.90
23137;DHT22;11737;50.558;7.258;2023-04-24T14:09:34;16.30;99.90
23137;DHT22;11737;50.558;7.258;2023-04-24T14:12:02;16.40;99.90
23137;DHT22;11737;50.558;7.258;2023-04-24T14:14:30;16.50;99.90
23137;DHT22;11737;50.558;7.258;2023-04-24T14:16:57;16.50;99.90
23137;DHT22;11737;50.558;7.258;2023-04-24T14:19:27;16.60;99.90
23137;DHT22;11737;50.558;7.258;2023-04-24T14:21:54;16.60;99.90
23137;DHT22;11737;50.558;7.258;2023-04-24T14:24:23;16.70;99.90
23137;DHT22;11737;50.558;7.258;2023-04-24T14:26:51;16.60;99.90
23137;DHT22;11737;50.558;7.258;2023-04-24T14:29:20;16.60;99.90
23137;DHT22;11737;50.558;7.258;2023-04-24T14:31:47;16.40;99.90
23137;DHT22;11737;50.558;7.258;2023-04-24T14:34:15;16.20;99.90
23137;DHT22;11737;50.558;7.258;2023-04-24T14:36:43;16.10;99.90
23137;DHT22;11737;50.558;7.258;2023-04-24T14:39:10;15.90;99.90
23137;DHT22;11737;50.558;7.258;2023-04-24T14:41:38;15.70;99.90
23137;DHT22;11737;50.558;7.258;2023-04-24T14:44:06;15.70;99.90
23137;DHT22;11737;50.558;7.258;2023-04-24T14:46:34;15.90;99.90
23137;DHT22;11737;50.558;7.258;2023-04-24T14:49:01;16.80;99.90
23137;DHT22;11737;50.558;7.258;2023-04-24T14:51:29;17.30;99.90
23137;DHT22;11737;50.558;7.258;2023-04-24T14:53:58;17.60;99.90
23137;DHT22;11737;50.558;7.258;2023-04-24T14:56:28;17.80;99.90
23137;DHT22;11737;50.558;7.258;2023-04-24T14:58:58;18.10;99.60
23137;DHT22;11737;50.558;7.258;2023-04-24T15:01:25;18.00;98.90
23137;DHT22;11737;50.558;7.258;2023-04-24T15:03:53;18.00;99.40
23137;DHT22;11737;50.558;7.258;2023-04-24T15:06:20;17.90;97.50
23137;DHT22;11737;50.558;7.258;2023-04-24T15:08:48;17.60;95.30
23137;DHT22;11737;50.558;7.258;2023-04-24T15:11:16;17.30;97.60
23137;DHT22;11737;50.558;7.258;2023-04-24T15:13:43;17.30;99.10
23137;DHT22;11737;50.558;7.258;2023-04-24T15:16:14;17.40;99.00
23137;DHT22;11737;50.558;7.258;2023-04-24T15:18:42;17.70;99.50
23137;DHT22;11737;50.558;7.258;2023-04-24T15:21:09;17.90;97.10
23137;DHT22;11737;50.558;7.258;2023-04-24T15:23:38;19.00;98.80
23137;DHT22;11737;50.558;7.258;2023-04-24T15:26:06;20.10;97.30
23137;DHT22;11737;50.558;7.258;2023-04-24T15:28:33;21.10;96.80
23137;DHT22;11737;50.558;7.258;2023-04-24T15:31:01;21.00;95.00
23137;DHT22;11737;50.558;7.258;2023-04-24T15:33:28;20.70;93.40
23137;DHT22;11737;50.558;7.258;2023-04-24T15:35:56;20.50;94.30
23137;DHT22;11737;50.558;7.258;2023-04-24T15:38:23;20.70;94.40
23137;DHT22;11737;50.558;7.258;2023-04-24T15:40:51;21.30;93.70
23137;DHT22;11737;50.558;7.258;2023-04-24T15:43:18;22.20;93.20
23137;DHT22;11737;50.558;7.258;2023-04-24T15:45:46;23.00;90.70